Time;durP1;ratioP1;P1;durP2;ratioP2;P2;SDS_P1;SDS_P2;PMS_P1;PMS_P2;Temp;Humidity;BMP_temperature;BMP_pressure;BME280_temperature;BME280_humidity;BME280_pressure;Samples;Min_cycle;Max_cycle;Signal;HPM_P1;HPM_P2
2022/05/07 00:00:31;;;;;;;43.35;26.75;;;15.00;99.90;;;;;;5170648;27;20051;-72
2022/05/07 00:02:57;;;;;;;43.63;25.48;;;15.00;99.90;;;;;;5171067;27;20060;-72
2022/05/07 00:05:23;;;;;;;40.85;24.55;;;15.00;99.90;;;;;;5153366;27;20074;-72
2022/05/07 00:07:48;;;;;;;46.20;26.67;;;15.10;99.90;;;;;;5119236;27;20055;-72
2022/05/07 00:10:15;;;;;;;38.17;24.90;;;15.00;99.90;;;;;;5170896;27;20051;-71
2022/05/07 00:12:41;;;;;;;43.20;25.98;;;14.90;99.90;;;;;;5170425;27;20058;-72
2022/05/07 00:15:08;;;;;;;46.25;26.98;;;14.80;99.90;;;;;;5170795;27;20054;-72
2022/05/07 00:20:17;;;;;;;44.03;26.65;;;14.80;99.90;;;;;;5135899;27;20496;-72
2022/05/07 00:22:43;;;;;;;41.42;26.23;;;14.80;99.90;;;;;;5170530;27;20043;-72
2022/05/07 00:25:10;;;;;;;42.58;24.67;;;14.90;99.90;;;;;;5170284;27;20058;-72
2022/05/07 00:27:36;;;;;;;39.70;26.00;;;14.90;99.90;;;;;;5135522;27;20054;-72
2022/05/07 00:30:04;;;;;;;42.47;24.77;;;14.90;99.90;;;;;;5118612;27;20051;-72
2022/05/07 00:32:29;;;;;;;39.42;24.88;;;15.00;99.90;;;;;;5135621;27;20477;-72
2022/05/07 00:34:55;;;;;;;41.83;25.00;;;14.90;99.90;;;;;;5170141;27;20047;-72
2022/05/07 00:37:20;;;;;;;39.10;25.70;;;14.90;99.90;;;;;;5118716;27;20039;-72
2022/05/07 00:39:48;;;;;;;40.95;25.35;;;14.90;99.90;;;;;;5169980;27;20050;-72
2022/05/07 00:42:15;;;;;;;42.45;25.08;;;14.90;99.90;;;;;;5136029;27;20047;-72
2022/05/07 00:44:41;;;;;;;46.83;26.75;;;14.90;99.90;;;;;;5135357;27;20058;-72
2022/05/07 00:47:24;;;;;;;48.55;27.50;;;15.00;99.90;;;;;;5134735;27;20081;-72
2022/05/07 00:49:53;;;;;;;44.47;27.70;;;15.10;99.90;;;;;;5135490;27;20043;-72
2022/05/07 00:52:19;;;;;;;42.80;24.67;;;15.10;99.90;;;;;;5135058;27;20069;-72
2022/05/07 00:54:46;;;;;;;44.85;28.52;;;15.00;99.90;;;;;;5134769;27;20047;-72
2022/05/07 00:57:13;;;;;;;43.13;25.98;;;15.00;99.90;;;;;;5117865;27;20455;-72
2022/05/07 00:59:39;;;;;;;43.55;27.00;;;15.00;99.90;;;;;;5135245;27;20055;-72
2022/05/07 01:02:05;;;;;;;40.97;25.25;;;15.00;99.90;;;;;;5117835;27;20135;-72
2022/05/07 01:04:31;;;;;;;44.53;25.92;;;15.10;99.90;;;;;;5169454;27;20134;-73
2022/05/07 01:06:57;;;;;;;46.10;28.17;;;15.10;99.90;;;;;;5135060;27;20058;-72
2022/05/07 01:09:23;;;;;;;40.65;25.52;;;15.10;99.90;;;;;;5134970;27;20051;-72
2022/05/07 01:11:51;;;;;;;40.88;26.42;;;15.00;99.90;;;;;;5134008;27;20512;-72
2022/05/07 01:14:16;;;;;;;47.95;27.63;;;15.10;99.90;;;;;;5134586;27;20409;-72
2022/05/07 01:16:42;;;;;;;50.47;27.70;;;15.10;99.90;;;;;;5169176;27;20035;-72
2022/05/07 01:19:08;;;;;;;47.97;28.58;;;15.10;99.90;;;;;;5169090;27;20043;-72
2022/05/07 01:21:34;;;;;;;43.30;27.45;;;15.20;99.90;;;;;;5134619;27;20039;-72
2022/05/07 01:24:00;;;;;;;43.42;27.70;;;15.20;99.90;;;;;;5134519;27;20051;-72
2022/05/07 01:26:26;;;;;;;47.88;28.80;;;15.10;99.90;;;;;;5134421;27;20405;-72
2022/05/07 01:28:59;;;;;;;43.20;27.48;;;15.10;99.90;;;;;;5134570;27;20035;-72
2022/05/07 01:31:27;;;;;;;45.20;27.98;;;15.10;99.90;;;;;;5134646;27;20051;-71
2022/05/07 01:33:53;;;;;;;47.75;27.67;;;15.20;99.90;;;;;;5133999;27;20057;-73
2022/05/07 01:36:19;;;;;;;41.25;26.20;;;15.10;99.90;;;;;;5134843;27;20051;-72
2022/05/07 01:38:45;;;;;;;49.67;28.45;;;15.10;99.90;;;;;;5135475;27;20047;-72
2022/05/07 01:41:11;;;;;;;45.35;27.73;;;15.10;99.90;;;;;;5134315;27;20466;-72
2022/05/07 01:43:37;;;;;;;45.53;28.25;;;15.10;99.90;;;;;;5169073;27;20104;-72
2022/05/07 01:46:03;;;;;;;49.70;28.73;;;15.10;99.90;;;;;;5133689;27;20075;-72
2022/05/07 01:48:29;;;;;;;47.60;29.70;;;15.10;99.90;;;;;;5134058;27;20090;-72
2022/05/07 01:50:54;;;;;;;48.63;29.75;;;15.10;99.90;;;;;;5133911;27;20466;-72
2022/05/07 01:53:22;;;;;;;47.67;28.73;;;15.20;99.90;;;;;;5133966;27;20043;-73
2022/05/07 01:55:48;;;;;;;41.50;26.83;;;15.20;99.90;;;;;;5133711;27;20059;-72
2022/05/07 01:58:14;;;;;;;46.63;28.02;;;15.20;99.90;;;;;;5134044;27;20466;-72
2022/05/07 02:00:40;;;;;;;48.53;29.17;;;15.30;99.90;;;;;;5133839;27;20047;-72
2022/05/07 02:03:07;;;;;;;42.72;26.60;;;15.30;99.90;;;;;;5133563;27;20051;-72
2022/05/07 02:05:32;;;;;;;47.55;27.98;;;15.20;99.90;;;;;;5134039;27;20051;-71
2022/05/07 02:07:58;;;;;;;49.45;28.23;;;15.20;99.90;;;;;;5133715;27;20051;-72
2022/05/07 02:10:25;;;;;;;47.42;28.42;;;15.20;99.90;;;;;;5133815;27;20049;-72
2022/05/07 02:12:51;;;;;;;49.30;29.17;;;15.20;99.90;;;;;;5133743;27;20402;-72
2022/05/07 02:15:17;;;;;;;43.10;27.52;;;15.20;99.90;;;;;;5116027;27;20054;-76
2022/05/07 02:17:43;;;;;;;51.05;28.38;;;15.20;99.90;;;;;;5133399;27;20087;-73
2022/05/07 02:20:09;;;;;;;48.75;28.45;;;15.20;99.90;;;;;;5168782;27;20093;-72
2022/05/07 02:22:35;;;;;;;47.70;28.55;;;15.20;99.90;;;;;;5133391;27;20047;-72
2022/05/07 02:25:01;;;;;;;44.80;27.85;;;15.20;99.90;;;;;;5133020;27;20043;-72
2022/05/07 02:27:27;;;;;;;51.70;30.02;;;15.20;99.90;;;;;;5150897;27;20083;-72
2022/05/07 02:29:53;;;;;;;47.22;27.70;;;15.30;99.90;;;;;;5133381;27;20474;-72
2022/05/07 02:32:19;;;;;;;40.75;26.27;;;15.30;99.90;;;;;;5168197;27;20100;-72
2022/05/07 02:34:45;;;;;;;43.88;29.05;;;15.30;99.90;;;;;;5133098;27;20047;-72
2022/05/07 02:37:12;;;;;;;46.40;28.73;;;15.30;99.90;;;;;;5168240;27;20543;-72
2022/05/07 02:39:38;;;;;;;43.72;27.17;;;15.30;99.90;;;;;;5133584;28;20478;-72
2022/05/07 02:44:49;;;;;;;44.35;27.88;;;15.40;99.90;;;;;;5133478;28;20062;-72
2022/05/07 02:47:14;;;;;;;37.17;25.38;;;15.30;99.90;;;;;;5132815;27;20047;-72
2022/05/07 02:49:40;;;;;;;39.70;26.77;;;15.30;99.90;;;;;;5133480;27;20047;-72
2022/05/07 02:52:06;;;;;;;45.05;27.83;;;15.30;99.90;;;;;;5134472;28;20047;-72
2022/05/07 02:54:32;;;;;;;44.30;27.98;;;15.20;99.90;;;;;;5168035;27;20115;-72
2022/05/07 02:56:58;;;;;;;42.63;26.67;;;15.20;99.90;;;;;;5167286;27;20604;-72
2022/05/07 02:59:24;;;;;;;49.83;28.80;;;15.30;99.90;;;;;;5167680;27;20066;-72
2022/05/07 03:01:51;;;;;;;40.67;27.23;;;15.30;99.90;;;;;;5167915;27;20397;-72
2022/05/07 03:04:17;;;;;;;45.45;28.15;;;15.20;99.90;;;;;;5133254;28;20124;-72
2022/05/07 03:06:42;;;;;;;41.50;27.48;;;15.30;99.90;;;;;;5133370;28;20047;-71
2022/05/07 03:09:08;;;;;;;43.17;28.00;;;15.30;99.90;;;;;;5167970;27;20039;-72
2022/05/07 03:11:34;;;;;;;41.28;27.17;;;15.30;99.90;;;;;;5167807;27;20050;-71
2022/05/07 03:14:05;;;;;;;42.75;27.25;;;15.20;99.90;;;;;;5132615;28;20051;-72
2022/05/07 03:16:31;;;;;;;39.85;26.35;;;15.20;99.90;;;;;;5132810;27;20044;-72
2022/05/07 03:18:57;;;;;;;39.58;26.17;;;15.20;99.90;;;;;;5133144;28;20051;-72
2022/05/07 03:21:23;;;;;;;44.13;28.08;;;15.20;99.90;;;;;;5133239;28;20043;-72
2022/05/07 03:23:48;;;;;;;45.10;28.77;;;15.10;99.90;;;;;;5133784;27;20061;-72
2022/05/07 03:26:16;;;;;;;42.53;26.95;;;15.10;99.90;;;;;;5133149;28;20474;-72
2022/05/07 03:28:42;;;;;;;43.20;28.10;;;15.00;99.90;;;;;;5132994;28;20130;-72
2022/05/07 03:31:07;;;;;;;42.05;29.08;;;15.00;99.90;;;;;;5167602;27;20086;-72
2022/05/07 03:33:33;;;;;;;42.20;26.27;;;15.00;99.90;;;;;;5167603;27;20043;-71
2022/05/07 03:35:59;;;;;;;40.83;26.45;;;15.00;99.90;;;;;;5170425;27;20051;-72
2022/05/07 03:38:25;;;;;;;47.03;28.65;;;14.90;99.90;;;;;;5136831;27;20386;-72
2022/05/07 03:40:50;;;;;;;44.78;27.60;;;14.90;99.90;;;;;;5153932;27;20481;-71
2022/05/07 03:43:16;;;;;;;42.63;28.38;;;14.90;99.90;;;;;;5171008;27;20062;-72
2022/05/07 03:45:45;;;;;;;42.80;27.63;;;14.80;99.90;;;;;;5136171;27;20053;-72
2022/05/07 03:48:11;;;;;;;43.83;26.83;;;14.80;99.90;;;;;;5136265;27;20054;-72
2022/05/07 03:50:37;;;;;;;39.17;26.70;;;14.80;99.90;;;;;;5171701;27;20050;-71
2022/05/07 03:55:47;;;;;;;41.03;27.83;;;14.80;99.90;;;;;;5136088;27;20058;-72
2022/05/07 03:58:16;;;;;;;39.30;26.70;;;14.80;99.90;;;;;;5136131;27;20051;-72
2022/05/07 04:00:42;;;;;;;44.00;27.85;;;14.80;99.90;;;;;;5171002;27;20058;-72
2022/05/07 04:03:12;;;;;;;43.47;25.80;;;14.70;99.90;;;;;;5136492;27;20047;-71
2022/05/07 04:05:38;;;;;;;44.22;27.13;;;14.80;99.90;;;;;;5136387;27;20070;-72
2022/05/07 04:08:04;;;;;;;39.75;26.73;;;14.80;99.90;;;;;;5136275;27;20050;-72
2022/05/07 04:10:30;;;;;;;41.70;26.33;;;14.70;99.90;;;;;;5136053;27;20134;-72
2022/05/07 04:12:56;;;;;;;39.72;27.13;;;14.80;99.90;;;;;;5119416;27;20126;-71
2022/05/07 04:15:22;;;;;;;45.50;29.08;;;14.80;99.90;;;;;;5170662;27;20397;-72
2022/05/07 04:17:49;;;;;;;40.47;27.55;;;14.80;99.90;;;;;;5135489;27;20050;-72
2022/05/07 04:20:16;;;;;;;40.50;27.08;;;14.90;99.90;;;;;;5135653;27;20104;-71
2022/05/07 04:22:42;;;;;;;41.30;28.23;;;14.90;99.90;;;;;;5135874;27;20058;-73
2022/05/07 04:25:10;;;;;;;37.60;26.20;;;14.90;99.90;;;;;;5118818;27;20043;-72
2022/05/07 04:27:35;;;;;;;39.30;27.55;;;14.90;99.90;;;;;;5135679;27;20043;-72
2022/05/07 04:30:01;;;;;;;41.10;27.35;;;15.00;99.90;;;;;;5135907;27;20091;-71
2022/05/07 04:32:28;;;;;;;41.47;28.38;;;15.00;99.90;;;;;;5135740;27;20050;-71
2022/05/07 04:34:57;;;;;;;41.67;26.95;;;15.10;99.90;;;;;;5118066;27;20051;-71
2022/05/07 04:37:24;;;;;;;40.13;27.52;;;15.10;99.90;;;;;;5135322;27;20374;-72
2022/05/07 04:39:50;;;;;;;42.15;27.27;;;15.10;99.90;;;;;;5135370;27;20405;-72
2022/05/07 04:42:15;;;;;;;42.63;28.35;;;15.10;99.90;;;;;;5170921;27;20039;-72
2022/05/07 04:44:41;;;;;;;43.58;28.67;;;15.10;99.90;;;;;;5170530;27;20075;-72
2022/05/07 04:47:07;;;;;;;44.55;27.90;;;15.20;99.90;;;;;;5133855;27;20533;-71
2022/05/07 04:49:35;;;;;;;39.42;27.75;;;15.30;99.90;;;;;;5134833;27;20043;-72
2022/05/07 04:52:01;;;;;;;46.65;29.20;;;15.30;99.90;;;;;;5136423;27;20057;-72
2022/05/07 04:54:27;;;;;;;40.40;28.17;;;15.30;99.90;;;;;;5135016;27;20092;-72
2022/05/07 04:56:53;;;;;;;41.30;27.00;;;15.30;99.90;;;;;;5169703;27;20059;-72
2022/05/07 04:59:20;;;;;;;39.75;27.30;;;15.40;99.90;;;;;;5134956;27;20098;-72
2022/05/07 05:01:46;;;;;;;41.70;27.65;;;15.40;99.90;;;;;;5118055;27;20084;-72
2022/05/07 05:04:13;;;;;;;42.20;29.10;;;15.40;99.90;;;;;;5134878;27;20047;-73
2022/05/07 05:06:39;;;;;;;40.22;28.67;;;15.50;99.90;;;;;;5134944;27;20050;-72
2022/05/07 05:09:06;;;;;;;43.85;28.40;;;15.50;99.90;;;;;;5134776;27;20100;-72
2022/05/07 05:11:37;;;;;;;43.58;28.90;;;15.50;99.90;;;;;;5134839;27;20134;-71
2022/05/07 05:15:01;;;;;;;41.60;26.55;;;15.50;99.90;;;;;;5134792;27;20043;-71
2022/05/07 05:16:49;;;;;;;40.85;27.10;;;15.60;99.90;;;;;;5135014;27;20134;-72
2022/05/07 05:19:14;;;;;;;41.13;29.00;;;15.60;99.90;;;;;;5135697;27;20462;-72
2022/05/07 05:21:41;;;;;;;44.22;29.77;;;15.60;99.90;;;;;;5169315;27;20095;-72
2022/05/07 05:24:07;;;;;;;38.75;28.40;;;15.60;99.90;;;;;;5134533;27;20059;-72
2022/05/07 05:26:33;;;;;;;43.13;29.15;;;15.70;99.90;;;;;;5117282;27;20043;-72
2022/05/07 05:28:58;;;;;;;40.42;27.88;;;15.70;99.90;;;;;;5169164;27;20046;-72
2022/05/07 05:31:24;;;;;;;43.85;29.02;;;15.80;99.90;;;;;;5135661;27;20049;-72
2022/05/07 05:33:49;;;;;;;40.25;28.05;;;15.80;99.90;;;;;;5168593;27;20481;-72
2022/05/07 05:36:15;;;;;;;41.42;29.13;;;15.90;99.90;;;;;;5169246;27;20050;-72
2022/05/07 05:38:41;;;;;;;44.38;29.52;;;15.90;99.90;;;;;;5168890;27;20043;-72
2022/05/07 05:41:07;;;;;;;41.50;28.23;;;16.00;99.90;;;;;;5169097;27;20059;-72
2022/05/07 05:43:33;;;;;;;41.72;29.08;;;16.10;99.90;;;;;;5134092;27;20078;-72
2022/05/07 05:45:59;;;;;;;51.90;30.13;;;16.10;99.90;;;;;;5133867;27;20051;-72
2022/05/07 05:48:28;;;;;;;41.50;28.08;;;16.10;99.90;;;;;;5133964;27;20062;-72
2022/05/07 05:50:57;;;;;;;41.83;27.20;;;16.20;99.90;;;;;;5134406;27;20053;-71
2022/05/07 05:53:23;;;;;;;44.50;29.92;;;16.20;99.90;;;;;;5134170;27;20134;-72
2022/05/07 05:55:49;;;;;;;43.30;29.08;;;16.30;99.90;;;;;;5134643;27;20139;-71
2022/05/07 05:58:15;;;;;;;41.55;27.20;;;16.20;99.90;;;;;;5133833;27;20055;-72
2022/05/07 06:00:41;;;;;;;41.08;28.60;;;16.20;99.90;;;;;;5133724;27;20046;-72
2022/05/07 06:03:07;;;;;;;44.78;29.42;;;16.20;99.90;;;;;;5168769;27;20039;-72
2022/05/07 06:05:32;;;;;;;43.75;27.95;;;16.20;99.90;;;;;;5133668;27;20368;-72
2022/05/07 06:07:59;;;;;;;39.83;27.48;;;16.20;99.90;;;;;;5168785;27;20046;-71
2022/05/07 06:10:25;;;;;;;47.33;29.65;;;16.30;99.90;;;;;;5133822;27;20128;-72
2022/05/07 06:12:51;;;;;;;43.30;28.42;;;16.30;99.90;;;;;;5133785;27;20078;-72
2022/05/07 06:15:17;;;;;;;44.33;28.55;;;16.40;99.90;;;;;;5168193;27;20139;-72
2022/05/07 06:17:42;;;;;;;37.47;26.90;;;16.40;99.90;;;;;;5167644;27;20054;-72
2022/05/07 06:20:08;;;;;;;41.42;29.50;;;16.50;99.90;;;;;;5168564;27;20047;-72
2022/05/07 06:22:34;;;;;;;41.15;28.23;;;16.50;99.90;;;;;;5133495;27;20039;-72
2022/05/07 06:27:44;;;;;;;42.40;28.63;;;16.70;99.90;;;;;;5133435;27;20573;-72
2022/05/07 06:30:10;;;;;;;42.50;27.98;;;16.80;99.90;;;;;;5167874;27;20125;-72
2022/05/07 06:32:37;;;;;;;45.22;29.58;;;16.90;99.90;;;;;;5133855;27;20051;-72
2022/05/07 06:35:07;;;;;;;37.08;27.70;;;17.10;99.90;;;;;;5133811;27;20043;-72
2022/05/07 06:37:34;;;;;;;40.55;26.40;;;17.10;99.90;;;;;;5133423;28;20127;-72
2022/05/07 06:40:01;;;;;;;38.05;27.33;;;17.10;99.90;;;;;;5133178;28;20096;-72
2022/05/07 06:42:27;;;;;;;38.00;26.35;;;17.20;99.90;;;;;;5116227;28;20051;-73
2022/05/07 06:44:52;;;;;;;34.90;25.52;;;17.10;99.90;;;;;;5134380;27;20042;-72
2022/05/07 06:47:18;;;;;;;39.10;26.60;;;17.20;99.90;;;;;;5167864;27;20155;-72
2022/05/07 06:49:44;;;;;;;34.78;24.67;;;17.20;99.90;;;;;;5133755;27;20047;-72
2022/05/07 06:52:11;;;;;;;36.78;24.52;;;17.30;99.90;;;;;;5167875;27;20058;-72
2022/05/07 06:54:37;;;;;;;35.50;24.45;;;17.30;99.90;;;;;;5132999;27;20062;-73
2022/05/07 06:57:03;;;;;;;35.22;24.77;;;17.30;99.90;;;;;;5132663;27;20058;-72
2022/05/07 06:59:32;;;;;;;38.38;26.33;;;17.30;99.90;;;;;;5132232;28;20051;-72
2022/05/07 07:01:58;;;;;;;37.50;26.35;;;17.30;99.90;;;;;;5132218;28;20047;-72
2022/05/07 07:04:25;;;;;;;31.50;22.85;;;17.30;99.90;;;;;;5157947;27;20051;-72
2022/05/07 07:06:51;;;;;;;33.38;23.80;;;17.30;99.90;;;;;;5131919;28;20039;-72
2022/05/07 07:09:17;;;;;;;35.33;23.60;;;17.50;99.90;;;;;;5132392;27;20043;-72
2022/05/07 07:11:43;;;;;;;31.33;21.63;;;17.60;99.90;;;;;;5136617;27;20047;-72
2022/05/07 07:14:09;;;;;;;28.60;21.73;;;17.70;99.90;;;;;;5136590;27;20047;-73
2022/05/07 07:16:35;;;;;;;31.92;21.67;;;17.80;99.90;;;;;;5136325;27;20054;-72
2022/05/07 07:19:01;;;;;;;31.05;23.67;;;17.80;99.90;;;;;;5136902;27;20046;-73
2022/05/07 07:21:27;;;;;;;15.70;11.75;;;17.70;99.90;;;;;;5136982;27;20046;-79
2022/05/07 07:23:53;;;;;;;29.88;21.50;;;17.60;99.90;;;;;;5136725;27;20057;-74
2022/05/07 07:26:19;;;;;;;32.63;22.48;;;17.70;99.90;;;;;;5171351;27;20051;-74
2022/05/07 07:28:45;;;;;;;30.83;21.67;;;17.60;99.90;;;;;;5137033;27;20051;-74
2022/05/07 07:31:11;;;;;;;29.08;21.83;;;17.30;99.90;;;;;;5136992;27;20123;-74
2022/05/07 07:33:38;;;;;;;31.35;21.63;;;17.30;99.90;;;;;;5171571;27;20039;-74
2022/05/07 07:36:05;;;;;;;33.65;23.08;;;17.30;99.90;;;;;;5136905;27;20572;-74
2022/05/07 07:38:31;;;;;;;33.70;22.25;;;17.50;99.90;;;;;;5135189;27;20051;-74
2022/05/07 07:40:57;;;;;;;29.90;22.98;;;17.20;99.90;;;;;;5169788;27;20397;-74
2022/05/07 07:43:23;;;;;;;35.58;24.33;;;17.40;99.90;;;;;;5171318;27;20103;-74
2022/05/07 07:48:33;;;;;;;32.33;22.90;;;17.60;99.90;;;;;;5136978;27;20054;-74
2022/05/07 07:50:59;;;;;;;30.25;22.70;;;17.70;99.90;;;;;;5136860;27;20047;-74
2022/05/07 07:53:24;;;;;;;34.53;22.58;;;17.60;99.90;;;;;;5136265;27;20390;-75
2022/05/07 07:55:51;;;;;;;31.80;21.85;;;17.70;99.90;;;;;;5170997;27;20095;-75
2022/05/07 07:58:17;;;;;;;28.83;21.48;;;17.60;99.90;;;;;;5136204;27;20055;-75
2022/05/07 08:00:47;;;;;;;30.73;21.77;;;17.80;99.90;;;;;;5119261;27;20104;-73
2022/05/07 08:03:18;;;;;;;32.72;22.48;;;18.00;99.90;;;;;;5139510;27;20409;-78
2022/05/07 08:05:47;;;;;;;31.50;22.20;;;18.10;99.90;;;;;;5142800;27;20390;-76
2022/05/07 08:13:45;;;;;;;30.80;22.02;;;18.10;99.90;;;;;;5136065;27;20136;-78
2022/05/07 08:16:11;;;;;;;32.85;22.50;;;18.20;99.90;;;;;;5135429;27;20047;-77
2022/05/07 08:18:39;;;;;;;31.65;22.38;;;18.40;99.90;;;;;;5118619;27;20486;-78
2022/05/07 08:21:07;;;;;;;33.92;21.55;;;18.50;99.90;;;;;;5136043;27;20043;-78
2022/05/07 08:23:33;;;;;;;28.52;21.13;;;18.40;99.90;;;;;;5135932;27;20047;-79
2022/05/07 08:25:58;;;;;;;27.73;19.75;;;18.30;99.90;;;;;;5135911;27;20039;-78
2022/05/07 08:28:25;;;;;;;29.52;20.38;;;18.30;99.90;;;;;;5135667;27;20047;-78
2022/05/07 08:30:53;;;;;;;28.63;20.55;;;18.50;99.90;;;;;;5135699;27;20047;-78
2022/05/07 08:33:19;;;;;;;31.65;19.85;;;18.60;99.90;;;;;;5135380;27;20051;-78
2022/05/07 08:35:45;;;;;;;25.05;17.92;;;18.60;99.90;;;;;;5136254;27;20452;-78
2022/05/07 08:38:11;;;;;;;30.42;21.30;;;18.80;99.90;;;;;;5135778;27;20054;-78
2022/05/07 08:40:40;;;;;;;28.45;19.80;;;18.90;99.90;;;;;;5135270;27;20504;-78
2022/05/07 08:43:06;;;;;;;28.70;20.25;;;18.90;99.90;;;;;;5135449;27;20406;-78
2022/05/07 08:45:32;;;;;;;29.52;19.75;;;19.00;99.90;;;;;;5170168;27;20036;-78
2022/05/07 08:47:59;;;;;;;26.42;20.38;;;19.10;99.90;;;;;;5134884;27;20474;-78
2022/05/07 08:50:26;;;;;;;28.92;20.00;;;19.10;99.90;;;;;;5135429;27;20591;-78
2022/05/07 08:52:53;;;;;;;28.27;20.10;;;18.90;99.90;;;;;;5135398;27;20055;-78
2022/05/07 08:55:20;;;;;;;29.88;21.13;;;19.00;99.90;;;;;;5135173;27;20086;-78
2022/05/07 08:57:48;;;;;;;30.67;19.63;;;19.00;99.90;;;;;;5135211;27;20054;-77
2022/05/07 09:00:16;;;;;;;28.00;20.77;;;19.00;99.90;;;;;;5117709;27;20046;-76
2022/05/07 09:02:48;;;;;;;30.15;20.23;;;19.00;99.90;;;;;;5125321;27;20480;-76
2022/05/07 09:05:18;;;;;;;33.95;22.55;;;18.90;99.90;;;;;;5131436;27;20045;-76
2022/05/07 09:07:58;;;;;;;36.05;26.02;;;19.00;99.90;;;;;;5133520;27;20043;-76
2022/05/07 09:10:28;;;;;;;38.75;25.52;;;19.00;99.90;;;;;;5117582;27;20142;-76
2022/05/07 09:13:00;;;;;;;37.55;26.05;;;18.80;99.90;;;;;;5134505;27;20057;-77
2022/05/07 09:15:26;;;;;;;44.20;28.38;;;18.90;99.90;;;;;;5134887;27;20050;-77
2022/05/07 09:17:51;;;;;;;51.80;30.42;;;19.00;99.90;;;;;;5151346;27;20047;-77
2022/05/07 09:20:21;;;;;;;46.13;30.73;;;18.90;99.90;;;;;;5163332;27;20134;-80
2022/05/07 09:22:53;;;;;;;48.70;30.90;;;18.80;99.90;;;;;;5133421;27;20058;-77
2022/05/07 09:25:26;;;;;;;45.60;29.65;;;18.70;99.90;;;;;;5132784;27;20047;-77
2022/05/07 09:27:59;;;;;;;51.63;29.98;;;18.70;99.90;;;;;;5117404;27;20058;-77
2022/05/07 09:30:30;;;;;;;39.63;26.05;;;18.70;99.90;;;;;;5134851;27;20134;-77
2022/05/07 09:32:56;;;;;;;53.38;33.35;;;18.80;99.90;;;;;;5135139;27;20454;-77
2022/05/07 09:38:12;;;;;;;53.58;34.10;;;18.80;99.90;;;;;;5134844;27;20058;-79
2022/05/07 09:40:40;;;;;;;56.42;33.30;;;18.60;99.90;;;;;;5134485;27;20543;-79
2022/05/07 09:43:10;;;;;;;57.88;35.92;;;18.60;99.90;;;;;;5124063;27;20051;-78
2022/05/07 09:45:37;;;;;;;59.90;36.25;;;18.60;99.90;;;;;;5134324;27;20082;-79
2022/05/07 09:48:07;;;;;;;53.50;33.05;;;18.60;99.90;;;;;;5133863;27;20090;-78
2022/05/07 09:58:43;;;;;;;55.42;32.60;;;18.10;99.90;;;;;;5134253;27;20050;-81
2022/05/07 10:01:20;;;;;;;51.53;31.10;;;18.20;99.90;;;;;;5135205;27;20126;-92
2022/05/07 10:03:55;;;;;;;46.10;28.95;;;18.10;99.90;;;;;;5134492;27;20047;-80
2022/05/07 10:06:30;;;;;;;47.13;29.30;;;17.80;99.90;;;;;;5133980;27;20089;-77
2022/05/07 10:09:15;;;;;;;49.67;29.58;;;17.90;99.90;;;;;;5134913;27;20046;-79
2022/05/07 10:11:42;;;;;;;45.03;28.45;;;17.80;99.90;;;;;;5134243;27;20130;-72
2022/05/07 10:14:07;;;;;;;49.58;30.23;;;18.10;99.90;;;;;;5133337;27;20039;-77
2022/05/07 10:16:33;;;;;;;49.90;30.35;;;18.30;99.90;;;;;;5133571;27;20088;-74
2022/05/07 10:19:10;;;;;;;42.92;28.50;;;18.40;99.90;;;;;;5133847;27;20112;-78
2022/05/07 10:21:36;;;;;;;47.22;28.67;;;18.60;99.90;;;;;;5116518;27;20130;-83
2022/05/07 10:24:02;;;;;;;46.78;28.63;;;18.60;99.90;;;;;;5136070;27;20082;-81
2022/05/07 10:26:45;;;;;;;42.47;28.73;;;18.90;99.90;;;;;;5133919;27;20055;-78
2022/05/07 10:29:26;;;;;;;39.97;27.23;;;19.20;99.90;;;;;;5132589;27;20055;-77
2022/05/07 10:32:04;;;;;;;43.50;26.25;;;19.10;99.90;;;;;;5116132;28;20047;-79
2022/05/07 10:34:30;;;;;;;41.78;26.35;;;19.30;99.90;;;;;;5136619;27;20111;-79
2022/05/07 10:37:13;;;;;;;39.83;25.45;;;19.50;99.90;;;;;;5135537;27;20470;-79
2022/05/07 10:39:50;;;;;;;38.33;25.85;;;19.50;99.90;;;;;;5133578;28;20054;-79
2022/05/07 10:42:19;;;;;;;42.72;25.60;;;19.80;99.90;;;;;;5133460;28;20482;-79
2022/05/07 10:44:45;;;;;;;41.55;25.52;;;20.00;99.90;;;;;;5134410;27;20130;-79
2022/05/07 10:47:15;;;;;;;36.65;25.40;;;19.50;99.90;;;;;;5137302;27;20545;-79
2022/05/07 10:50:13;;;;;;;38.78;25.77;;;19.30;99.90;;;;;;5137945;27;20330;-84
2022/05/07 10:52:39;;;;;;;40.35;25.50;;;19.60;99.90;;;;;;5137532;27;20043;-79
2022/05/07 10:55:17;;;;;;;35.03;23.25;;;19.80;99.90;;;;;;5137428;27;20100;-79
2022/05/07 10:57:48;;;;;;;38.78;25.25;;;20.00;99.90;;;;;;5137415;27;20047;-80
2022/05/07 11:00:21;;;;;;;35.13;24.65;;;20.00;99.90;;;;;;5137662;27;20086;-78
2022/05/07 11:02:51;;;;;;;40.15;25.65;;;19.70;99.90;;;;;;5137620;27;20055;-77
2022/05/07 11:05:17;;;;;;;39.20;25.58;;;19.80;99.90;;;;;;5137331;27;20050;-80
2022/05/07 11:07:44;;;;;;;37.40;22.98;;;19.60;99.90;;;;;;5137437;27;20102;-81
2022/05/07 11:10:10;;;;;;;37.00;24.75;;;19.60;99.90;;;;;;5137278;27;20390;-79
2022/05/07 11:12:39;;;;;;;39.33;23.80;;;19.70;99.90;;;;;;5137396;27;20039;-80
2022/05/07 11:15:08;;;;;;;47.60;28.52;;;19.60;99.90;;;;;;5136964;27;20100;-80
2022/05/07 11:17:40;;;;;;;45.63;28.15;;;19.50;99.90;;;;;;5141114;27;20103;-81
2022/05/07 11:20:07;;;;;;;50.05;29.23;;;19.50;99.90;;;;;;5136998;27;20510;-80
2022/05/07 11:22:33;;;;;;;47.13;28.58;;;19.60;99.90;;;;;;5137136;27;20481;-80
2022/05/07 11:25:00;;;;;;;48.95;28.90;;;19.50;99.90;;;;;;5136868;27;20140;-80
2022/05/07 11:27:32;;;;;;;49.58;27.75;;;18.90;99.90;;;;;;5136990;27;20066;-81
2022/05/07 11:30:12;;;;;;;42.28;26.70;;;18.90;99.90;;;;;;5136950;27;20390;-79
2022/05/07 11:32:38;;;;;;;38.83;22.98;;;18.90;99.90;;;;;;5136771;27;20553;-77
2022/05/07 11:35:04;;;;;;;42.90;23.48;;;18.50;99.90;;;;;;5137513;27;20389;-78
2022/05/07 11:37:41;;;;;;;39.05;22.88;;;18.50;99.90;;;;;;5136852;27;20043;-82
2022/05/07 11:40:25;;;;;;;35.00;21.00;;;18.50;99.90;;;;;;5137132;27;20128;-79
2022/05/07 11:45:25;;;;;;;31.80;20.05;;;18.40;99.90;;;;;;5136466;27;20043;-79
2022/05/07 11:45:37;;;;;;;40.20;22.45;;;18.40;99.90;;;;;;5136796;27;20502;-80
2022/05/07 11:48:13;;;;;;;37.30;21.90;;;18.30;99.90;;;;;;5119244;27;20047;-80
2022/05/07 11:50:59;;;;;;;;;;;18.50;99.90;;;;;;5137128;27;20497;-80
2022/05/07 11:53:29;;;;;;;34.97;19.63;;;18.40;99.90;;;;;;5135898;27;20069;-79
2022/05/07 11:56:09;;;;;;;32.70;19.10;;;18.10;99.90;;;;;;5135757;27;20081;-80
2022/05/07 11:58:42;;;;;;;33.13;19.60;;;18.30;99.90;;;;;;5136584;27;20051;-80
2022/05/07 12:01:18;;;;;;;32.72;20.42;;;18.60;99.90;;;;;;5136575;27;20445;-79
2022/05/07 12:03:44;;;;;;;30.42;19.20;;;18.70;99.90;;;;;;5135997;27;20488;-77
2022/05/07 12:06:12;;;;;;;33.30;19.08;;;18.80;99.90;;;;;;5136413;27;20047;-78
2022/05/07 12:08:37;;;;;;;28.58;17.13;;;18.60;99.90;;;;;;5135968;27;20054;-80
2022/05/07 12:11:04;;;;;;;26.70;16.73;;;18.40;99.90;;;;;;5119465;27;20047;-80
2022/05/07 12:13:30;;;;;;;30.08;16.10;;;18.50;99.90;;;;;;5135874;27;20054;-80
2022/05/07 12:18:47;;;;;;;;;;;18.70;99.90;;;;;;5136999;27;20051;-81
2022/05/07 12:21:12;;;;;;;14.38;8.93;;;18.40;99.90;;;;;;5136089;27;19926;-81
2022/05/07 12:31:53;;;;;;;15.95;9.40;;;18.40;99.90;;;;;;5136028;27;20082;-80
2022/05/07 12:34:19;;;;;;;14.98;9.13;;;18.60;99.90;;;;;;5136824;27;20119;-76
2022/05/07 12:36:45;;;;;;;15.52;9.45;;;18.90;99.90;;;;;;5118735;27;20130;-77
2022/05/07 12:39:11;;;;;;;15.93;9.70;;;19.00;99.90;;;;;;5135400;27;20521;-76
2022/05/07 12:41:41;;;;;;;14.73;9.35;;;19.20;99.90;;;;;;5135758;27;20082;-78
2022/05/07 12:44:06;;;;;;;16.77;10.00;;;19.40;99.90;;;;;;5136386;27;20051;-77
2022/05/07 12:46:33;;;;;;;15.52;9.77;;;18.80;99.90;;;;;;5134977;27;20553;-77
2022/05/07 12:48:58;;;;;;;16.60;9.23;;;18.90;99.90;;;;;;5135380;27;20039;-87
2022/05/07 12:51:25;;;;;;;18.83;10.23;;;19.20;99.90;;;;;;5118131;27;20138;-80
2022/05/07 12:53:54;;;;;;;19.73;10.23;;;19.20;99.90;;;;;;5134687;27;20049;-80
2022/05/07 12:56:22;;;;;;;19.48;10.65;;;19.10;99.90;;;;;;5134985;27;20412;-80
2022/05/07 12:58:49;;;;;;;17.80;10.07;;;19.10;99.90;;;;;;5135490;27;20100;-79
2022/05/07 13:01:15;;;;;;;17.73;10.15;;;19.20;99.90;;;;;;5135445;27;20062;-79
2022/05/07 13:03:41;;;;;;;15.23;9.13;;;19.40;99.90;;;;;;5101025;27;20086;-80
2022/05/07 13:06:10;;;;;;;15.95;9.73;;;19.40;99.90;;;;;;5135756;27;20546;-80
2022/05/07 13:08:36;;;;;;;17.45;9.88;;;19.20;99.90;;;;;;5134242;27;20055;-80
2022/05/07 13:11:02;;;;;;;17.17;10.75;;;19.20;99.90;;;;;;5134909;27;20043;-80